Time;durP1;ratioP1;P1;durP2;ratioP2;P2;SDS_P1;SDS_P2;PMS_P1;PMS_P2;Temp;Humidity;BMP_temperature;BMP_pressure;BME280_temperature;BME280_humidity;BME280_pressure;Samples;Min_cycle;Max_cycle;Signal;HPM_P1;HPM_P2
2023/06/23 00:00:28;;;;;;;0.77;0.68;;;;;;;22.54;85.68;100708.22;4976124;28;20046;-67
2023/06/23 00:03:17;;;;;;;1.27;0.65;;;;;;;22.48;86.20;100712.69;4993749;28;20481;-67
2023/06/23 00:05:42;;;;;;;1.75;0.88;;;;;;;22.43;86.61;100714.78;4952875;29;20433;-67
2023/06/23 00:08:08;;;;;;;3.85;1.10;;;;;;;22.53;86.07;100710.19;4952425;29;20047;-67
2023/06/23 00:10:34;;;;;;;1.42;0.80;;;;;;;22.67;85.12;100700.81;4953222;28;20047;-67
2023/06/23 00:13:00;;;;;;;1.02;0.75;;;;;;;22.57;85.79;100699.91;4951744;29;20039;-67
2023/06/23 00:15:25;;;;;;;1.58;0.75;;;;;;;22.47;86.03;100706.47;4952861;29;20031;-67
2023/06/23 00:17:54;;;;;;;1.98;0.93;;;;;;;22.33;86.71;100701.34;4953323;28;20393;-67
2023/06/23 00:20:20;;;;;;;1.35;0.88;;;;;;;22.34;86.48;100713.84;4972221;28;20050;-67
2023/06/23 00:22:45;;;;;;;1.38;0.98;;;;;;;22.35;85.32;100705.22;4970846;28;20701;-67
2023/06/23 00:25:12;;;;;;;2.63;1.10;;;;;;;22.14;86.82;100713.22;4971371;28;20046;-67
2023/06/23 00:27:42;;;;;;;2.05;0.98;;;;;;;22.18;86.96;100714.66;4954420;28;20435;-67
2023/06/23 00:30:11;;;;;;;1.33;0.80;;;;;;;22.09;87.06;100721.97;4970222;28;20042;-67
2023/06/23 00:32:37;;;;;;;1.77;1.00;;;;;;;22.03;87.70;100712.72;4969204;28;20380;-67
2023/06/23 00:35:03;;;;;;;0.95;0.85;;;;;;;21.76;89.35;100714.94;4969530;28;20039;-67
2023/06/23 00:37:30;;;;;;;1.33;0.63;;;;;;;21.87;89.34;100726.47;4961051;28;20086;-67
2023/06/23 00:39:55;;;;;;;1.15;0.82;;;;;;;21.95;88.82;100719.59;4955281;28;20042;-67
2023/06/23 00:42:21;;;;;;;1.33;0.80;;;;;;;21.91;88.77;100724.41;4985908;28;20046;-67
2023/06/23 00:44:46;;;;;;;1.40;0.70;;;;;;;21.90;89.11;100722.84;4991618;28;20445;-67
2023/06/23 00:47:14;;;;;;;1.50;0.73;;;;;;;21.78;89.06;100720.75;4975127;28;20044;-67
2023/06/23 00:49:41;;;;;;;2.03;1.20;;;;;;;21.70;89.90;100724.91;4991676;28;20037;-67
2023/06/23 00:52:10;;;;;;;1.63;0.80;;;;;;;21.73;89.02;100730.31;4999054;28;20025;-67
2023/06/23 00:54:36;;;;;;;1.35;0.90;;;;;;;21.75;88.80;100730.66;5012457;28;20044;-67
2023/06/23 00:57:02;;;;;;;1.80;0.65;;;;;;;21.61;89.78;100722.75;4994849;28;20412;-67
2023/06/23 00:59:28;;;;;;;0.80;0.75;;;;;;;21.65;90.40;100728.16;4994237;28;20518;-67
2023/06/23 01:01:58;;;;;;;0.85;0.77;;;;;;;21.69;89.87;100742.53;5010876;28;20065;-67
2023/06/23 01:04:24;;;;;;;0.77;0.60;;;;;;;21.77;89.53;100739.22;4994687;28;20560;-67
2023/06/23 01:07:06;;;;;;;1.65;1.00;;;;;;;21.68;90.65;100749.25;5012374;28;20037;-67
2023/06/23 01:09:44;;;;;;;1.13;0.80;;;;;;;21.61;91.40;100757.63;5002472;28;20487;-67
2023/06/23 01:12:47;;;;;;;1.20;0.93;;;;;;;21.83;89.61;100761.44;4992578;28;20109;-67
2023/06/23 01:15:24;;;;;;;0.88;0.60;;;;;;;21.76;89.66;100762.34;4994539;28;20053;-67
2023/06/23 01:17:57;;;;;;;1.05;0.90;;;;;;;21.63;90.25;100763.44;4993882;28;20034;-67
2023/06/23 01:20:27;;;;;;;1.77;0.77;;;;;;;21.60;90.65;100758.81;5011608;28;20038;-67
2023/06/23 01:23:03;;;;;;;0.52;0.52;;;;;;;21.53;91.07;100776.19;5011645;28;20073;-67
2023/06/23 01:26:05;;;;;;;1.98;1.10;;;;;;;21.56;90.79;100759.66;5011802;28;20045;-67
2023/06/23 01:28:49;;;;;;;1.08;0.73;;;;;;;21.49;91.54;100759.84;4993577;28;20052;-67
2023/06/23 01:31:21;;;;;;;2.45;0.65;;;;;;;21.43;91.32;100777.19;4994592;28;20030;-67
2023/06/23 01:33:53;;;;;;;0.82;0.63;;;;;;;21.49;91.24;100770.81;4994246;28;20556;-67
2023/06/23 01:36:51;;;;;;;1.33;0.73;;;;;;;21.43;91.48;100772.50;5011355;28;20451;-67
2023/06/23 01:39:20;;;;;;;0.35;0.35;;;;;;;21.34;92.31;100774.28;4993423;28;20132;-67
2023/06/23 01:41:59;;;;;;;1.45;0.65;;;;;;;21.28;92.71;100773.22;5011787;28;20094;-67
2023/06/23 01:44:29;;;;;;;1.58;0.45;;;;;;;21.30;93.31;100781.81;5011276;28;20065;-67
2023/06/23 01:46:59;;;;;;;0.40;0.40;;;;;;;21.37;92.59;100790.63;4994310;28;20402;-67
2023/06/23 01:49:30;;;;;;;1.42;0.55;;;;;;;21.41;92.63;100791.34;4993124;28;20402;-67
2023/06/23 01:51:57;;;;;;;0.80;0.60;;;;;;;21.38;92.97;100792.19;5011240;28;20453;-67
2023/06/23 01:54:24;;;;;;;1.95;0.95;;;;;;;21.32;93.31;100791.16;4993652;28;20289;-67
2023/06/23 01:56:51;;;;;;;0.93;0.75;;;;;;;21.48;92.45;100796.69;5011691;28;20048;-67
2023/06/23 01:59:19;;;;;;;0.85;0.60;;;;;;;21.38;92.46;100797.69;4993577;28;20089;-67
2023/06/23 02:01:47;;;;;;;1.20;0.75;;;;;;;21.34;93.09;100807.16;5011235;28;20080;-67
2023/06/23 02:04:15;;;;;;;1.17;0.90;;;;;;;21.39;92.87;100799.22;4961966;28;20022;-67
2023/06/23 02:06:44;;;;;;;1.13;0.60;;;;;;;21.43;92.72;100801.88;5005091;28;20057;-67
2023/06/23 02:09:15;;;;;;;2.00;1.10;;;;;;;21.32;93.36;100804.84;4994943;28;20038;-67
2023/06/23 02:11:42;;;;;;;;;;;;;;;21.27;93.19;100807.31;5013580;28;20453;-67
2023/06/23 02:14:09;;;;;;;0.85;0.75;;;;;;;21.33;92.76;100803.66;5011666;28;20356;-67
2023/06/23 02:16:36;;;;;;;1.60;0.93;;;;;;;21.24;92.64;100808.94;5011151;28;20502;-67
2023/06/23 02:19:24;;;;;;;0.98;0.70;;;;;;;21.19;93.06;100817.66;5009983;28;20026;-67
2023/06/23 02:21:52;;;;;;;2.17;1.08;;;;;;;21.22;92.98;100816.03;4895958;29;20071;-67
2023/06/23 02:24:18;;;;;;;0.88;0.63;;;;;;;21.19;92.45;100806.69;4912425;29;20553;-67
2023/06/23 02:26:47;;;;;;;1.05;0.90;;;;;;;21.20;92.17;100807.44;4896681;29;20040;-67
2023/06/23 02:29:14;;;;;;;1.05;0.93;;;;;;;21.23;92.57;100815.63;4892514;29;20044;-67
2023/06/23 02:31:40;;;;;;;1.70;0.93;;;;;;;21.16;92.53;100812.22;4877421;29;20557;-67
2023/06/23 02:34:05;;;;;;;0.85;0.73;;;;;;;21.29;91.13;100821.38;4892545;29;20072;-67
2023/06/23 02:36:37;;;;;;;2.63;1.20;;;;;;;21.26;91.34;100816.72;4879618;29;20504;-67
2023/06/23 02:39:06;;;;;;;1.42;0.98;;;;;;;21.20;91.48;100827.41;4876898;29;20630;-67
2023/06/23 02:41:35;;;;;;;1.65;0.98;;;;;;;21.18;91.26;100826.28;4877898;29;20457;-67
2023/06/23 02:44:07;;;;;;;1.60;1.00;;;;;;;21.07;93.02;100820.25;4893613;29;20488;-67
2023/06/23 02:46:38;;;;;;;1.92;1.20;;;;;;;21.03;91.74;100820.31;4885519;29;20432;-67
2023/06/23 02:49:07;;;;;;;3.13;0.80;;;;;;;20.97;92.87;100821.97;4894979;29;20048;-65
2023/06/23 02:51:36;;;;;;;1.48;1.00;;;;;;;20.93;93.49;100829.50;4906596;29;20512;-65
2023/06/23 02:54:07;;;;;;;1.60;0.98;;;;;;;20.98;93.52;100837.22;4908768;29;20433;-65
2023/06/23 02:56:41;;;;;;;1.50;0.90;;;;;;;20.95;92.92;100829.06;4904356;29;20044;-65
2023/06/23 02:59:11;;;;;;;0.88;0.60;;;;;;;20.99;92.88;100825.06;4972387;28;20049;-65
2023/06/23 03:01:41;;;;;;;2.30;0.82;;;;;;;20.99;92.15;100824.28;5010522;28;20041;-65
2023/06/23 03:04:07;;;;;;;1.48;0.95;;;;;;;21.03;92.22;100823.06;4989565;28;20034;-65
2023/06/23 03:06:36;;;;;;;1.35;1.00;;;;;;;20.99;92.03;100814.13;4991156;28;20052;-65
2023/06/23 03:09:02;;;;;;;2.15;1.23;;;;;;;20.87;92.21;100811.22;4973139;28;20045;-64
2023/06/23 03:11:30;;;;;;;1.67;0.85;;;;;;;20.71;93.55;100805.69;4991615;28;20041;-65
2023/06/23 03:13:56;;;;;;;1.95;1.00;;;;;;;20.81;93.37;100802.72;4973752;28;20506;-64
2023/06/23 03:16:45;;;;;;;0.80;0.80;;;;;;;20.75;92.89;100807.13;4973550;28;20042;-63
2023/06/23 03:19:18;;;;;;;2.55;1.10;;;;;;;20.74;93.06;100811.09;4990539;28;20084;-65
2023/06/23 03:21:47;;;;;;;1.63;1.00;;;;;;;20.92;91.61;100821.69;4993254;28;20034;-64
2023/06/23 03:24:14;;;;;;;1.58;1.13;;;;;;;20.90;91.84;100830.34;5010960;28;20042;-65
2023/06/23 03:26:45;;;;;;;1.33;0.80;;;;;;;20.85;92.18;100839.03;4992621;28;20037;-67
2023/06/23 03:29:11;;;;;;;1.30;0.90;;;;;;;20.90;92.39;100852.25;4997200;28;20034;-67
2023/06/23 03:31:42;;;;;;;1.92;1.13;;;;;;;20.93;92.35;100853.34;4987354;28;20038;-67
2023/06/23 03:34:08;;;;;;;0.90;0.77;;;;;;;20.88;92.85;100849.16;4977121;28;20033;-67
2023/06/23 03:36:38;;;;;;;1.90;1.02;;;;;;;20.84;92.76;100862.13;4976914;28;20026;-67
2023/06/23 03:39:24;;;;;;;1.48;0.80;;;;;;;20.84;92.75;100856.66;5002351;28;20041;-67
2023/06/23 03:41:50;;;;;;;1.67;0.75;;;;;;;20.76;93.28;100866.19;5013455;28;20033;-67
2023/06/23 03:44:30;;;;;;;1.20;0.90;;;;;;;20.85;93.09;100863.66;5013700;28;20044;-67
2023/06/23 03:47:00;;;;;;;1.42;0.77;;;;;;;20.84;93.00;100884.03;5007744;28;20038;-67
2023/06/23 03:49:35;;;;;;;3.05;1.00;;;;;;;20.87;92.85;100874.97;4993338;28;20046;-67
2023/06/23 03:52:04;;;;;;;2.33;1.00;;;;;;;20.92;92.29;100881.94;4994329;28;20501;-67
2023/06/23 03:54:31;;;;;;;1.63;0.80;;;;;;;20.88;92.70;100876.53;4994371;28;20126;-67
2023/06/23 03:56:59;;;;;;;1.35;1.10;;;;;;;20.90;92.87;100876.13;5003160;28;20399;-67
2023/06/23 03:59:27;;;;;;;2.17;1.17;;;;;;;20.92;93.04;100880.00;5012849;28;20029;-67
2023/06/23 04:01:55;;;;;;;2.22;1.25;;;;;;;20.94;92.97;100883.09;5010231;28;20036;-67
2023/06/23 04:04:22;;;;;;;4.88;1.05;;;;;;;20.88;93.41;100886.72;5008645;28;20049;-67
2023/06/23 04:06:48;;;;;;;1.15;0.77;;;;;;;20.88;93.40;100876.53;5013506;28;20117;-67
2023/06/23 04:09:16;;;;;;;1.90;0.88;;;;;;;20.85;93.64;100877.38;5012977;28;20050;-67
2023/06/23 04:11:44;;;;;;;1.30;0.80;;;;;;;20.91;93.52;100886.66;5012804;28;20033;-68
2023/06/23 04:14:12;;;;;;;1.75;0.85;;;;;;;20.97;93.11;100890.44;5013275;28;20046;-67
2023/06/23 04:16:42;;;;;;;1.52;1.00;;;;;;;20.92;93.56;100884.69;5013106;28;20038;-66
2023/06/23 04:19:10;;;;;;;1.98;1.17;;;;;;;20.93;93.35;100876.06;4994672;28;20030;-67
2023/06/23 04:21:38;;;;;;;0.70;0.70;;;;;;;20.88;93.11;100876.53;4995946;28;20034;-67
2023/06/23 04:24:06;;;;;;;1.13;0.75;;;;;;;20.80;93.08;100872.38;4995790;28;20172;-67
2023/06/23 04:26:34;;;;;;;1.15;0.85;;;;;;;20.74;93.25;100873.28;5013320;28;20038;-67
2023/06/23 04:29:04;;;;;;;1.40;0.77;;;;;;;20.72;93.33;100868.22;4977559;28;20122;-67
2023/06/23 04:31:31;;;;;;;0.98;0.60;;;;;;;20.78;93.23;100872.03;4992529;28;20058;-67
2023/06/23 04:33:57;;;;;;;1.67;0.93;;;;;;;20.73;92.53;100877.97;4996530;28;20076;-67
2023/06/23 04:36:32;;;;;;;1.83;1.00;;;;;;;20.72;92.25;100884.66;4994293;28;20096;-67
2023/06/23 04:39:03;;;;;;;3.88;0.70;;;;;;;20.70;92.04;100884.28;5005329;28;20509;-67
2023/06/23 04:41:31;;;;;;;2.70;0.70;;;;;;;20.61;92.01;100884.06;5010555;28;20116;-67
2023/06/23 04:44:01;;;;;;;1.23;0.77;;;;;;;20.58;92.71;100877.44;4996873;28;20409;-67
2023/06/23 04:46:33;;;;;;;1.00;0.60;;;;;;;20.56;92.54;100879.06;5007655;28;20088;-67
2023/06/23 04:49:10;;;;;;;1.27;0.82;;;;;;;20.59;92.73;100880.97;5002751;28;20513;-67
2023/06/23 04:51:41;;;;;;;1.10;0.80;;;;;;;20.61;92.58;100878.59;5009531;28;20623;-68
2023/06/23 04:54:14;;;;;;;1.23;0.88;;;;;;;20.59;92.93;100879.00;5008803;28;20034;-65
2023/06/23 04:56:48;;;;;;;1.20;0.60;;;;;;;20.66;92.76;100884.34;5015229;28;20045;-67
2023/06/23 04:59:15;;;;;;;1.05;0.75;;;;;;;20.72;92.34;100881.13;5010333;28;20050;-65
2023/06/23 05:01:42;;;;;;;0.85;0.60;;;;;;;20.75;92.13;100880.31;5004249;28;20034;-66
2023/06/23 05:04:09;;;;;;;2.22;0.95;;;;;;;20.74;92.26;100893.22;5008123;28;20109;-66
2023/06/23 05:06:37;;;;;;;1.83;0.95;;;;;;;20.74;92.18;100898.69;5009584;28;20112;-68
2023/06/23 05:09:05;;;;;;;1.50;0.80;;;;;;;20.75;92.31;100902.22;5010879;28;20044;-65
2023/06/23 05:11:32;;;;;;;1.05;0.82;;;;;;;20.79;92.56;100913.88;5010162;28;20053;-68
2023/06/23 05:13:58;;;;;;;1.25;0.98;;;;;;;20.80;92.65;100921.66;5010694;28;20037;-65
2023/06/23 05:16:25;;;;;;;1.38;0.70;;;;;;;20.78;93.55;100928.75;5011324;28;20112;-65
2023/06/23 05:18:52;;;;;;;0.93;0.70;;;;;;;20.77;94.41;100935.44;5011525;28;20708;-66
2023/06/23 05:21:20;;;;;;;1.02;0.82;;;;;;;20.90;94.13;100941.84;5009501;28;20402;-65
2023/06/23 05:23:49;;;;;;;1.13;0.73;;;;;;;20.93;93.83;100952.72;5002317;28;20057;-65
2023/06/23 05:26:16;;;;;;;1.23;0.70;;;;;;;20.92;93.71;100953.16;5014052;28;20053;-67
2023/06/23 05:28:43;;;;;;;0.82;0.57;;;;;;;20.91;93.49;100957.84;5004703;28;20116;-64
2023/06/23 05:31:11;;;;;;;1.30;0.80;;;;;;;20.90;93.56;100967.28;5011585;28;20018;-65
2023/06/23 05:33:40;;;;;;;1.17;0.90;;;;;;;20.89;93.80;100957.50;5009236;28;20037;-65
2023/06/23 05:36:10;;;;;;;1.10;0.80;;;;;;;20.87;93.88;100957.13;5013105;28;20034;-64
2023/06/23 05:38:38;;;;;;;1.48;0.65;;;;;;;20.96;93.45;100949.19;5013252;28;20029;-66
2023/06/23 05:41:04;;;;;;;0.65;0.52;;;;;;;21.05;92.69;100957.66;5013053;28;20071;-65
2023/06/23 05:43:29;;;;;;;1.67;0.70;;;;;;;21.02;92.58;100955.72;4995598;28;20500;-67
2023/06/23 05:45:56;;;;;;;1.27;0.70;;;;;;;21.03;92.97;100957.28;4996667;28;20091;-66
2023/06/23 05:48:39;;;;;;;1.35;0.88;;;;;;;20.98;93.29;100962.44;5010498;28;20044;-66
2023/06/23 05:51:08;;;;;;;0.70;0.60;;;;;;;20.99;93.43;100953.81;4990062;28;20072;-65
2023/06/23 05:53:36;;;;;;;3.50;0.90;;;;;;;20.97;93.29;100953.44;5011982;28;20076;-64
2023/06/23 05:56:21;;;;;;;0.70;0.70;;;;;;;20.98;93.12;100943.28;5013947;28;20038;-66
2023/06/23 05:58:52;;;;;;;0.80;0.65;;;;;;;21.10;92.98;100945.44;5016851;28;20113;-65
2023/06/23 06:01:21;;;;;;;1.63;0.77;;;;;;;21.10;93.19;100953.66;5014602;28;20042;-66
2023/06/23 06:03:58;;;;;;;1.02;0.70;;;;;;;21.09;93.56;100952.88;5013704;28;20486;-65
2023/06/23 06:06:26;;;;;;;0.95;0.65;;;;;;;21.14;93.83;100952.38;5013375;28;20048;-66
2023/06/23 06:08:53;;;;;;;0.63;0.63;;;;;;;21.12;93.57;100957.50;5013952;28;20026;-66
2023/06/23 06:11:21;;;;;;;1.08;0.65;;;;;;;21.16;93.86;100960.19;5014180;28;20038;-66
2023/06/23 06:13:48;;;;;;;1.20;0.90;;;;;;;21.18;94.11;100958.56;4982408;28;20546;-65
2023/06/23 06:16:16;;;;;;;1.98;1.23;;;;;;;21.18;94.23;100968.75;5014746;28;20034;-65
2023/06/23 06:18:44;;;;;;;4.70;0.95;;;;;;;21.25;93.77;100969.41;4995863;28;20042;-65
2023/06/23 06:21:11;;;;;;;1.35;0.82;;;;;;;21.24;93.70;100970.59;5013969;28;20117;-65
2023/06/23 06:23:39;;;;;;;1.10;0.95;;;;;;;21.23;93.90;100960.84;4992696;28;20121;-65
2023/06/23 06:26:06;;;;;;;1.25;0.63;;;;;;;21.25;93.91;100955.69;4976364;28;20030;-67
2023/06/23 06:28:34;;;;;;;3.50;0.93;;;;;;;21.25;94.32;100966.66;4993181;28;20125;-65
2023/06/23 06:31:02;;;;;;;2.10;0.80;;;;;;;21.29;94.49;100961.13;4977158;28;20026;-66
2023/06/23 06:33:28;;;;;;;1.52;0.73;;;;;;;21.33;94.88;100972.81;4993130;28;20062;-65
2023/06/23 06:35:57;;;;;;;1.67;0.88;;;;;;;21.35;94.80;100973.91;4993402;28;20034;-66
2023/06/23 06:38:24;;;;;;;3.65;1.10;;;;;;;21.37;95.51;100979.75;4993537;28;20050;-65
2023/06/23 06:40:53;;;;;;;0.70;0.70;;;;;;;21.48;94.75;100982.31;5011541;28;20113;-67
2023/06/23 06:43:19;;;;;;;2.30;1.00;;;;;;;21.48;95.26;100983.09;5014915;28;20026;-65
2023/06/23 06:45:50;;;;;;;1.27;0.90;;;;;;;21.56;94.92;100991.94;4995580;28;20034;-68
2023/06/23 06:48:16;;;;;;;5.05;0.90;;;;;;;21.59;94.64;100996.56;4991636;28;20533;-68
2023/06/23 06:50:43;;;;;;;1.63;1.15;;;;;;;21.52;95.06;100999.47;4993802;28;20030;-66
2023/06/23 06:53:09;;;;;;;2.38;1.05;;;;;;;21.53;95.19;101001.78;4976447;28;20044;-66
2023/06/23 06:55:35;;;;;;;2.58;1.20;;;;;;;21.58;94.75;101001.28;4993579;28;20094;-66
2023/06/23 06:58:01;;;;;;;3.00;1.10;;;;;;;21.64;94.88;101007.03;4995355;28;20030;-66
2023/06/23 07:00:27;;;;;;;1.42;1.02;;;;;;;21.66;95.44;101012.13;5000109;28;20408;-65
2023/06/23 07:02:54;;;;;;;3.15;1.27;;;;;;;21.65;95.32;101007.81;5014909;28;20040;-68
2023/06/23 07:05:20;;;;;;;0.85;0.80;;;;;;;21.64;95.29;101006.28;5017126;28;20049;-66
2023/06/23 07:07:46;;;;;;;0.80;0.73;;;;;;;21.68;95.33;101009.72;5016410;28;20057;-68
2023/06/23 07:10:12;;;;;;;1.35;1.00;;;;;;;21.66;95.89;101015.63;5019942;28;20038;-67
2023/06/23 07:12:37;;;;;;;2.72;1.10;;;;;;;21.64;95.78;101017.25;5018502;28;20025;-68
2023/06/23 07:15:03;;;;;;;1.25;0.60;;;;;;;21.70;96.06;101019.06;5007957;28;20029;-68
2023/06/23 07:17:28;;;;;;;1.25;0.82;;;;;;;21.74;96.05;101022.50;5016797;28;20520;-66
2023/06/23 07:19:54;;;;;;;1.75;0.98;;;;;;;21.72;96.11;101019.41;5018333;28;20022;-69
2023/06/23 07:22:19;;;;;;;1.45;1.10;;;;;;;21.73;96.67;101020.97;5020218;28;20060;-68
2023/06/23 07:24:45;;;;;;;1.40;0.90;;;;;;;21.71;97.09;101017.88;5003126;28;20034;-65
2023/06/23 07:27:10;;;;;;;1.70;1.13;;;;;;;21.77;97.17;101015.41;5013022;28;20025;-68
2023/06/23 07:29:35;;;;;;;1.40;1.10;;;;;;;21.74;97.08;101021.75;5014075;28;20054;-67
2023/06/23 07:32:01;;;;;;;1.50;1.02;;;;;;;21.79;96.86;101015.78;4992887;28;20029;-66
2023/06/23 07:34:29;;;;;;;1.95;1.20;;;;;;;21.86;97.15;101019.19;5004935;28;20705;-68
2023/06/23 07:36:55;;;;;;;2.35;1.13;;;;;;;21.91;96.90;101015.94;5005904;28;20500;-67
2023/06/23 07:39:20;;;;;;;1.90;0.93;;;;;;;21.91;97.25;101015.94;4985287;28;20034;-68
2023/06/23 07:41:46;;;;;;;2.60;1.33;;;;;;;22.03;96.69;101015.28;5005460;28;20045;-68
2023/06/23 07:44:11;;;;;;;0.98;0.90;;;;;;;22.06;96.34;101019.16;5007942;28;20049;-68
2023/06/23 07:46:37;;;;;;;1.30;0.88;;;;;;;22.11;96.23;101018.66;5004461;28;20057;-68
2023/06/23 07:49:02;;;;;;;2.10;1.20;;;;;;;22.06;96.74;101021.91;4968583;28;20118;-68
2023/06/23 07:51:29;;;;;;;1.33;1.17;;;;;;;22.15;96.44;101022.09;4989195;28;20154;-68
2023/06/23 07:53:57;;;;;;;2.13;1.30;;;;;;;22.16;96.79;101029.16;5003861;28;20049;-68
2023/06/23 07:56:23;;;;;;;1.48;1.10;;;;;;;22.16;96.93;101031.91;5005329;28;20427;-67
2023/06/23 07:58:48;;;;;;;3.55;1.27;;;;;;;22.23;97.07;101040.75;5003351;28;20085;-67
2023/06/23 08:01:13;;;;;;;2.53;1.02;;;;;;;22.34;96.17;101043.25;5006316;28;20034;-67
2023/06/23 08:03:43;;;;;;;2.17;1.05;;;;;;;22.29;97.25;101054.75;4985242;28;20041;-67
2023/06/23 08:06:09;;;;;;;1.92;1.17;;;;;;;22.30;96.66;101053.53;5005126;28;20379;-67
2023/06/23 08:08:34;;;;;;;3.58;1.98;;;;;;;22.31;97.33;101055.88;5003019;28;20036;-67
2023/06/23 08:10:59;;;;;;;2.58;1.30;;;;;;;22.37;96.92;101053.41;5006669;28;20113;-66
2023/06/23 08:13:25;;;;;;;3.22;1.20;;;;;;;22.37;97.15;101056.16;5002772;28;20038;-67
2023/06/23 08:15:50;;;;;;;2.30;1.20;;;;;;;22.37;96.86;101067.91;5003562;28;20037;-67
2023/06/23 08:18:16;;;;;;;1.65;1.23;;;;;;;22.32;97.26;101062.13;5003159;28;20214;-66
2023/06/23 08:20:41;;;;;;;2.22;1.27;;;;;;;22.35;97.28;101073.06;5005448;28;20470;-67
2023/06/23 08:23:07;;;;;;;2.03;1.27;;;;;;;22.30;97.25;101078.25;5003489;28;20037;-67
2023/06/23 08:25:32;;;;;;;1.95;1.30;;;;;;;22.27;97.93;101082.63;5003579;28;20058;-66
2023/06/23 08:27:58;;;;;;;1.80;1.10;;;;;;;22.28;97.68;101088.88;5004060;28;20401;-66
2023/06/23 08:30:29;;;;;;;2.05;1.52;;;;;;;22.27;98.27;101088.13;4986843;28;20022;-67
2023/06/23 08:32:55;;;;;;;2.92;1.08;;;;;;;22.23;98.10;101092.13;5004057;28;20034;-66
2023/06/23 08:35:21;;;;;;;1.75;1.13;;;;;;;22.26;98.44;101102.28;5005970;28;20025;-66
2023/06/23 08:37:47;;;;;;;2.08;1.35;;;;;;;22.28;98.56;101105.34;5001691;28;20121;-67
2023/06/23 08:40:13;;;;;;;1.42;0.88;;;;;;;22.32;98.04;101106.81;4984405;28;20657;-66
2023/06/23 08:42:39;;;;;;;4.75;1.50;;;;;;;22.31;98.33;101119.00;5004351;28;20025;-66
2023/06/23 08:45:06;;;;;;;2.25;1.23;;;;;;;22.36;98.23;101123.22;5006256;28;20060;-66
2023/06/23 08:47:35;;;;;;;2.97;1.35;;;;;;;22.35;98.23;101133.44;5011593;28;20045;-67
2023/06/23 08:50:01;;;;;;;2.17;1.27;;;;;;;22.35;98.29;101138.94;5012459;28;20029;-67
2023/06/23 08:52:26;;;;;;;3.20;1.45;;;;;;;22.31;98.38;101145.69;5008875;28;20753;-66
2023/06/23 08:54:52;;;;;;;3.72;1.10;;;;;;;22.32;98.28;101147.22;5011086;28;20149;-67
2023/06/23 08:57:19;;;;;;;2.47;1.45;;;;;;;22.29;98.42;101161.81;5006842;28;20021;-66
2023/06/23 08:59:45;;;;;;;1.88;1.25;;;;;;;22.31;98.66;101167.66;5007774;28;20048;-66
2023/06/23 09:02:10;;;;;;;1.38;1.15;;;;;;;22.33;99.05;101176.22;5011683;28;20030;-67
2023/06/23 09:04:35;;;;;;;2.10;1.38;;;;;;;22.33;99.12;101179.75;5011836;28;20037;-67
2023/06/23 09:07:01;;;;;;;2.00;1.10;;;;;;;22.37;99.40;101190.66;5011887;28;20025;-67
2023/06/23 09:09:26;;;;;;;2.35;1.35;;;;;;;22.42;99.66;101185.47;5010574;28;20045;-67
2023/06/23 09:11:52;;;;;;;2.65;1.33;;;;;;;22.45;99.62;101190.09;5011619;28;20050;-66
2023/06/23 09:14:18;;;;;;;3.45;1.88;;;;;;;22.51;100.00;101200.59;5006675;28;20045;-67
2023/06/23 09:16:45;;;;;;;1.98;1.35;;;;;;;22.59;99.25;101207.53;5007561;28;20030;-66
2023/06/23 09:19:11;;;;;;;3.03;1.60;;;;;;;22.61;99.62;101205.13;5002189;28;20033;-68
2023/06/23 09:21:37;;;;;;;2.38;1.65;;;;;;;22.61;99.59;101218.88;5010685;28;20371;-67
2023/06/23 09:24:07;;;;;;;2.33;1.40;;;;;;;22.60;99.51;101217.31;4991140;28;20053;-67
2023/06/23 09:26:50;;;;;;;3.35;1.77;;;;;;;22.59;99.89;101224.75;5011804;28;20037;-66
2023/06/23 09:29:20;;;;;;;2.47;1.67;;;;;;;22.70;99.57;101230.06;5010658;28;20072;-66
2023/06/23 09:31:51;;;;;;;3.10;1.63;;;;;;;22.74;99.57;101228.00;5009747;28;20083;-66
2023/06/23 09:34:23;;;;;;;3.22;1.98;;;;;;;22.73;99.82;101232.72;5002701;28;20034;-66
2023/06/23 09:36:49;;;;;;;3.88;1.90;;;;;;;22.82;99.62;101232.91;5011177;28;20038;-67
2023/06/23 09:39:15;;;;;;;5.53;2.25;;;;;;;22.86;99.35;101236.38;5009646;28;20105;-67
2023/06/23 09:41:52;;;;;;;2.90;1.88;;;;;;;22.87;99.89;101243.44;5011634;28;20667;-66
2023/06/23 09:44:17;;;;;;;4.20;2.10;;;;;;;22.88;100.00;101244.22;5001317;28;20404;-67
2023/06/23 09:46:43;;;;;;;4.90;2.15;;;;;;;22.96;100.00;101248.34;4987905;28;20026;-66
2023/06/23 09:49:08;;;;;;;5.78;2.38;;;;;;;22.99;100.00;101250.25;5004814;28;20148;-67
2023/06/23 09:51:37;;;;;;;6.15;2.08;;;;;;;23.01;100.00;101251.38;5002430;28;20084;-67
2023/06/23 09:54:03;;;;;;;2.80;1.88;;;;;;;23.02;100.00;101252.94;5007346;28;20464;-66
2023/06/23 09:56:29;;;;;;;3.30;2.50;;;;;;;23.05;100.00;101252.06;5001713;28;20104;-67
2023/06/23 09:58:54;;;;;;;4.88;2.15;;;;;;;23.10;100.00;101248.84;5009788;28;20046;-67
2023/06/23 10:01:20;;;;;;;2.65;1.95;;;;;;;23.11;100.00;101250.38;5003093;28;20030;-66
2023/06/23 10:03:47;;;;;;;4.60;2.00;;;;;;;23.15;100.00;101253.81;5003379;28;20033;-66
2023/06/23 10:06:26;;;;;;;3.47;2.22;;;;;;;23.21;100.00;101263.09;4986644;28;20037;-66
2023/06/23 10:08:56;;;;;;;3.08;2.03;;;;;;;23.23;100.00;101257.97;5004637;28;20030;-66
2023/06/23 10:11:40;;;;;;;3.28;2.13;;;;;;;23.27;100.00;101266.13;5004456;28;20026;-66
2023/06/23 10:14:11;;;;;;;2.78;1.88;;;;;;;23.38;100.00;101274.19;5001517;28;20041;-66
2023/06/23 10:16:43;;;;;;;4.05;1.83;;;;;;;23.37;100.00;101272.63;5007589;28;20490;-67
2023/06/23 10:19:09;;;;;;;3.38;2.20;;;;;;;23.43;100.00;101274.44;4992645;28;20471;-66
2023/06/23 10:21:36;;;;;;;2.17;1.77;;;;;;;23.45;100.00;101277.53;5010627;28;20032;-67
2023/06/23 10:24:04;;;;;;;4.28;2.00;;;;;;;23.46;100.00;101273.59;5009705;28;20037;-67
2023/06/23 10:26:31;;;;;;;3.47;2.13;;;;;;;23.50;99.96;101281.78;4996248;28;20053;-67
2023/06/23 10:28:58;;;;;;;3.50;1.80;;;;;;;23.55;100.00;101282.03;4992146;28;20030;-67
2023/06/23 10:31:29;;;;;;;6.03;2.30;;;;;;;23.67;100.00;101281.38;5010485;28;20037;-66
2023/06/23 10:33:58;;;;;;;3.47;2.20;;;;;;;23.71;99.79;101281.28;5010167;28;20113;-66
2023/06/23 10:36:24;;;;;;;3.95;2.03;;;;;;;23.71;99.50;101289.53;5010916;28;20105;-66
2023/06/23 10:38:52;;;;;;;3.47;2.05;;;;;;;23.78;99.13;101287.38;5009941;28;20318;-66
2023/06/23 10:41:19;;;;;;;3.17;2.40;;;;;;;23.64;99.24;101301.47;5010242;28;20037;-67
2023/06/23 10:43:47;;;;;;;4.93;2.58;;;;;;;23.64;99.54;101297.94;5010086;28;20030;-66
2023/06/23 10:46:13;;;;;;;3.22;2.10;;;;;;;23.58;98.93;101300.44;4993098;28;20041;-66
2023/06/23 10:48:40;;;;;;;2.55;1.48;;;;;;;23.55;98.44;101301.28;5000757;28;20454;-67
2023/06/23 10:51:06;;;;;;;2.75;1.80;;;;;;;23.50;98.82;101299.03;5004509;28;20053;-66
2023/06/23 10:53:32;;;;;;;4.13;2.25;;;;;;;23.50;99.01;101304.53;4989826;28;20030;-67
2023/06/23 10:55:59;;;;;;;2.90;2.08;;;;;;;23.51;98.81;101310.81;4982816;28;20038;-65
2023/06/23 10:58:25;;;;;;;3.03;1.98;;;;;;;23.58;98.52;101307.91;5000519;28;20021;-65
2023/06/23 11:00:53;;;;;;;3.90;2.10;;;;;;;23.62;98.30;101309.38;5004072;28;20049;-64
2023/06/23 11:03:36;;;;;;;6.80;2.22;;;;;;;23.69;98.30;101316.69;5003324;28;20041;-64
2023/06/23 11:06:09;;;;;;;4.45;2.05;;;;;;;23.69;97.74;101305.69;5002512;28;20129;-64
2023/06/23 11:08:39;;;;;;;2.15;1.45;;;;;;;23.69;98.13;101314.69;5001327;28;20506;-64
2023/06/23 11:11:06;;;;;;;2.92;1.75;;;;;;;23.74;98.22;101321.69;4998309;28;20121;-66
2023/06/23 11:13:46;;;;;;;3.00;1.98;;;;;;;23.81;97.93;101327.03;5004842;28;20525;-64
2023/06/23 11:16:25;;;;;;;3.72;2.38;;;;;;;23.90;96.82;101325.25;5002568;28;20557;-65
2023/06/23 11:18:54;;;;;;;2.95;1.80;;;;;;;23.86;96.96;101323.78;4996827;28;20022;-64
2023/06/23 11:21:25;;;;;;;2.38;1.55;;;;;;;23.87;96.73;101328.84;5002950;28;20030;-65
2023/06/23 11:24:10;;;;;;;5.60;2.25;;;;;;;23.78;97.19;101328.66;4983073;28;20490;-65
2023/06/23 11:26:36;;;;;;;2.80;1.88;;;;;;;23.75;96.96;101326.75;5001061;28;20037;-62
2023/06/23 11:29:08;;;;;;;3.20;2.17;;;;;;;23.77;96.35;101329.09;5000623;28;20486;-64
2023/06/23 11:31:33;;;;;;;4.53;2.10;;;;;;;23.80;96.50;101329.00;5006439;28;20029;-65